createdAt,value
2018-07-07T00:01:16.085Z,3.80
2018-07-07T00:03:42.996Z,4.03
2018-07-07T00:06:09.932Z,3.87
2018-07-07T00:08:36.849Z,4.57
2018-07-07T00:11:03.780Z,3.83
2018-07-07T00:13:30.708Z,4.10
2018-07-07T00:15:57.638Z,4.00
2018-07-07T00:18:24.580Z,3.93
2018-07-07T00:20:51.545Z,3.60
2018-07-07T00:23:18.449Z,3.00
2018-07-07T00:25:45.360Z,3.63
2018-07-07T00:28:12.300Z,3.60
2018-07-07T00:30:39.240Z,4.07
2018-07-07T00:33:06.171Z,3.93
2018-07-07T00:35:33.087Z,4.23
2018-07-07T00:37:59.992Z,3.97
2018-07-07T00:40:26.932Z,3.87
2018-07-07T00:42:53.875Z,3.80
2018-07-07T00:45:20.789Z,4.53
2018-07-07T00:47:47.719Z,3.70
2018-07-07T00:50:14.645Z,4.27
2018-07-07T00:52:41.556Z,4.33
2018-07-07T00:55:08.474Z,3.63
2018-07-07T00:57:35.417Z,4.30
2018-07-07T01:00:02.408Z,3.63
2018-07-07T01:02:29.339Z,4.57
2018-07-07T01:04:56.280Z,3.93
2018-07-07T01:07:23.652Z,3.73
2018-07-07T01:09:50.664Z,3.87
2018-07-07T01:12:17.656Z,3.73
2018-07-07T01:14:44.609Z,4.23
2018-07-07T01:17:11.537Z,4.00
2018-07-07T01:19:38.714Z,4.00
2018-07-07T01:22:07.638Z,3.83
2018-07-07T01:24:34.552Z,3.53
2018-07-07T01:27:01.489Z,3.47
2018-07-07T01:29:29.009Z,3.80
2018-07-07T01:31:55.943Z,4.10
2018-07-07T01:34:22.872Z,3.50
2018-07-07T01:36:53.520Z,3.77
2018-07-07T01:39:21.473Z,4.40
2018-07-07T01:41:48.947Z,4.10
2018-07-07T01:44:16.274Z,3.93
2018-07-07T01:46:43.285Z,3.57
2018-07-07T01:49:10.352Z,4.17
2018-07-07T01:51:37.306Z,3.97
2018-07-07T01:54:04.390Z,3.67
2018-07-07T01:56:31.336Z,3.80
2018-07-07T01:58:59.549Z,4.37
2018-07-07T02:01:26.730Z,3.77
2018-07-07T02:03:53.670Z,3.97
2018-07-07T02:06:20.621Z,4.07
2018-07-07T02:08:47.578Z,3.97
2018-07-07T02:11:15.505Z,3.80
2018-07-07T02:13:42.460Z,3.97
2018-07-07T02:16:09.384Z,4.33
2018-07-07T02:18:36.325Z,3.73
2018-07-07T02:21:03.300Z,4.03
2018-07-07T02:23:30.277Z,4.23
2018-07-07T02:25:57.222Z,3.90
2018-07-07T02:28:24.149Z,3.93
2018-07-07T02:30:51.090Z,3.77
2018-07-07T02:33:18.045Z,3.70
2018-07-07T02:35:44.973Z,3.53
2018-07-07T02:38:11.902Z,3.53
2018-07-07T02:40:38.846Z,4.60
2018-07-07T02:43:05.777Z,3.47
2018-07-07T02:45:32.726Z,3.83
2018-07-07T02:47:59.678Z,3.37
2018-07-07T02:50:26.617Z,4.23
2018-07-07T02:52:53.537Z,3.97
2018-07-07T02:55:20.460Z,3.47
2018-07-07T02:57:47.407Z,4.10
2018-07-07T03:00:14.318Z,4.03
2018-07-07T03:02:41.262Z,3.07
2018-07-07T03:05:08.175Z,3.93
2018-07-07T03:07:35.100Z,4.30
2018-07-07T03:10:02.048Z,3.63
2018-07-07T03:12:28.981Z,4.50
2018-07-07T03:14:55.902Z,4.00
2018-07-07T03:17:22.835Z,3.87
2018-07-07T03:19:50.051Z,4.07
2018-07-07T03:22:17.002Z,4.07
2018-07-07T03:24:43.933Z,4.53
2018-07-07T03:27:10.844Z,4.10
2018-07-07T03:29:37.789Z,4.33
2018-07-07T03:32:04.899Z,3.80
2018-07-07T03:34:31.824Z,3.93
2018-07-07T03:36:58.745Z,3.87
2018-07-07T03:39:25.659Z,4.00
2018-07-07T03:41:52.559Z,4.27
2018-07-07T03:44:19.500Z,4.20
2018-07-07T03:46:46.407Z,3.43
2018-07-07T03:49:13.333Z,3.90
2018-07-07T03:51:40.231Z,4.03
2018-07-07T03:54:07.188Z,3.60
2018-07-07T03:56:34.094Z,4.00
2018-07-07T03:59:01.013Z,3.67
2018-07-07T04:01:27.945Z,3.87
2018-07-07T04:03:54.855Z,3.40
2018-07-07T04:06:21.753Z,3.90
2018-07-07T04:08:48.655Z,3.77
2018-07-07T04:11:15.556Z,3.73
2018-07-07T04:13:42.471Z,4.73
2018-07-07T04:16:09.361Z,3.17
2018-07-07T04:18:36.264Z,4.20
2018-07-07T04:21:04.331Z,4.27
2018-07-07T04:23:31.818Z,3.63
2018-07-07T04:25:58.926Z,3.80
2018-07-07T04:28:25.944Z,4.00
2018-07-07T04:30:52.884Z,3.20
2018-07-07T04:33:19.840Z,3.47
2018-07-07T04:35:47.445Z,3.37
2018-07-07T04:38:14.372Z,3.30
2018-07-07T04:40:41.280Z,4.03
2018-07-07T04:43:08.208Z,3.60
2018-07-07T04:45:35.173Z,2.93
2018-07-07T04:48:02.099Z,4.43
2018-07-07T04:50:29.029Z,3.57
2018-07-07T04:52:55.931Z,3.80
2018-07-07T04:55:22.848Z,3.50
2018-07-07T04:57:49.765Z,3.73
2018-07-07T05:00:16.704Z,3.73
2018-07-07T05:02:43.604Z,3.37
2018-07-07T05:05:10.522Z,3.73
2018-07-07T05:07:37.436Z,3.20
2018-07-07T05:10:04.377Z,2.70
2018-07-07T05:12:31.280Z,3.23
2018-07-07T05:14:58.192Z,3.23
2018-07-07T05:17:25.116Z,3.10
2018-07-07T05:19:52.050Z,2.83
2018-07-07T05:22:18.970Z,3.97
2018-07-07T05:24:46.179Z,3.13
2018-07-07T05:27:13.088Z,3.53
2018-07-07T05:29:40.010Z,2.97
2018-07-07T05:32:06.953Z,3.53
2018-07-07T05:34:33.869Z,3.73
2018-07-07T05:37:00.792Z,3.50
2018-07-07T05:39:27.729Z,3.33
2018-07-07T05:41:54.651Z,3.57
2018-07-07T05:44:21.570Z,2.93
2018-07-07T05:46:48.496Z,3.10
2018-07-07T05:49:15.421Z,3.00
2018-07-07T05:51:42.324Z,3.40
2018-07-07T05:54:09.265Z,3.47
2018-07-07T05:56:36.177Z,3.27
2018-07-07T05:59:03.250Z,3.30
2018-07-07T06:01:30.162Z,3.03
2018-07-07T06:03:57.064Z,3.17
2018-07-07T06:06:23.959Z,3.00
2018-07-07T06:08:50.852Z,3.30
2018-07-07T06:11:17.761Z,2.87
2018-07-07T06:13:44.688Z,3.17
2018-07-07T06:16:11.607Z,2.60
2018-07-07T06:18:38.502Z,3.40
2018-07-07T06:21:05.433Z,2.93
2018-07-07T06:23:32.383Z,2.60
2018-07-07T06:25:59.312Z,2.87
2018-07-07T06:28:26.204Z,2.50
2018-07-07T06:30:53.118Z,2.53
2018-07-07T06:33:20.013Z,3.23
2018-07-07T06:35:46.912Z,2.60
2018-07-07T06:38:13.796Z,3.00
2018-07-07T06:40:40.715Z,2.83
2018-07-07T06:43:07.608Z,3.83
2018-07-07T06:45:34.545Z,3.30
2018-07-07T06:48:01.412Z,3.10
2018-07-07T06:50:28.330Z,2.73
2018-07-07T06:52:55.228Z,3.33
2018-07-07T06:55:22.149Z,2.50
2018-07-07T06:57:49.044Z,2.43
2018-07-07T07:00:15.949Z,2.70
2018-07-07T07:02:42.856Z,2.30
2018-07-07T07:05:09.774Z,2.80
2018-07-07T07:07:36.681Z,2.43
2018-07-07T07:10:03.678Z,2.73
2018-07-07T07:12:30.630Z,2.43
2018-07-07T07:14:57.546Z,2.30
2018-07-07T07:17:24.445Z,2.53
2018-07-07T07:19:51.379Z,2.80
2018-07-07T07:22:18.263Z,2.90
2018-07-07T07:24:45.157Z,2.20
2018-07-07T07:27:12.075Z,2.53
2018-07-07T07:29:39.071Z,2.37
2018-07-07T07:32:05.977Z,2.90
2018-07-07T07:34:32.902Z,2.53
2018-07-07T07:36:59.829Z,2.60
2018-07-07T07:39:26.748Z,3.10
2018-07-07T07:41:53.676Z,2.27
2018-07-07T07:44:20.571Z,2.53
2018-07-07T07:46:47.485Z,2.63
2018-07-07T07:49:14.393Z,2.67
2018-07-07T07:51:41.337Z,2.63
2018-07-07T07:54:08.228Z,2.20
2018-07-07T07:56:35.149Z,2.87
2018-07-07T07:59:02.122Z,2.30
2018-07-07T08:01:28.977Z,3.00
2018-07-07T08:03:56.380Z,2.83
2018-07-07T08:06:23.321Z,2.70
2018-07-07T08:08:50.232Z,2.80
2018-07-07T08:11:17.153Z,2.87
2018-07-07T08:13:44.046Z,2.40
2018-07-07T08:16:10.985Z,2.13
2018-07-07T08:18:37.921Z,2.23
2018-07-07T08:21:04.874Z,2.30
2018-07-07T08:23:31.774Z,2.90
2018-07-07T08:25:58.716Z,2.20
2018-07-07T08:28:25.744Z,2.53
2018-07-07T08:30:53.017Z,2.60
2018-07-07T08:33:19.931Z,2.70
2018-07-07T08:35:46.853Z,2.70
2018-07-07T08:38:16.609Z,2.57
2018-07-07T08:40:43.848Z,2.60
2018-07-07T08:43:12.552Z,2.33
2018-07-07T08:45:39.560Z,2.93
2018-07-07T08:48:06.518Z,2.60
2018-07-07T08:50:33.425Z,2.17
2018-07-07T08:53:00.333Z,2.63
2018-07-07T08:55:27.235Z,2.70
2018-07-07T08:57:54.236Z,2.70
2018-07-07T09:00:21.136Z,2.30
2018-07-07T09:02:48.033Z,1.90
2018-07-07T09:05:14.959Z,2.77
2018-07-07T09:07:41.943Z,2.40
2018-07-07T09:10:08.825Z,2.17
2018-07-07T09:12:35.733Z,2.57
2018-07-07T09:15:02.656Z,2.33
2018-07-07T09:17:29.633Z,2.43
2018-07-07T09:19:56.533Z,3.07
2018-07-07T09:22:23.445Z,2.27
2018-07-07T09:24:50.356Z,2.60
2018-07-07T09:27:17.268Z,2.67
2018-07-07T09:29:44.151Z,2.43
2018-07-07T09:32:11.088Z,2.80
2018-07-07T09:34:37.984Z,2.17
2018-07-07T09:37:04.911Z,2.20
2018-07-07T09:39:31.815Z,2.10
2018-07-07T09:41:58.744Z,2.53
2018-07-07T09:44:25.701Z,2.50
2018-07-07T09:46:52.648Z,2.30
2018-07-07T09:49:19.673Z,2.47
2018-07-07T09:51:47.379Z,2.60
2018-07-07T09:54:14.291Z,2.07
2018-07-07T09:56:41.212Z,2.40
2018-07-07T09:59:08.204Z,2.30
2018-07-07T10:01:35.142Z,2.57
2018-07-07T10:04:02.050Z,2.30
2018-07-07T10:06:29.541Z,2.40
2018-07-07T10:08:56.456Z,2.23
2018-07-07T10:11:23.642Z,2.93
2018-07-07T10:13:50.931Z,2.60
2018-07-07T10:16:17.814Z,2.50
2018-07-07T10:18:44.740Z,2.60
2018-07-07T10:21:11.661Z,2.80
2018-07-07T10:23:38.587Z,2.30
2018-07-07T10:26:05.657Z,2.60
2018-07-07T10:28:33.060Z,2.90
2018-07-07T10:30:59.949Z,2.83
2018-07-07T10:33:26.879Z,2.43
2018-07-07T10:35:53.805Z,2.37
2018-07-07T10:38:20.790Z,2.20
2018-07-07T10:40:47.656Z,2.60
2018-07-07T10:43:14.571Z,2.00
2018-07-07T10:45:41.554Z,2.50
2018-07-07T10:48:08.408Z,2.30
2018-07-07T10:50:35.775Z,2.07
2018-07-07T10:53:02.740Z,2.80
2018-07-07T10:55:29.704Z,2.20
2018-07-07T10:57:56.581Z,2.10
2018-07-07T11:00:23.524Z,2.70
2018-07-07T11:02:55.402Z,2.33
2018-07-07T11:05:24.115Z,2.70
2018-07-07T11:07:52.070Z,2.00
2018-07-07T11:10:18.972Z,2.33
2018-07-07T11:12:45.882Z,2.47
2018-07-07T11:15:12.789Z,2.00
2018-07-07T11:17:39.708Z,2.10
2018-07-07T11:20:06.700Z,2.40
2018-07-07T11:22:33.785Z,2.20
2018-07-07T11:25:00.664Z,2.17
2018-07-07T11:27:27.574Z,2.27
2018-07-07T11:29:54.502Z,2.43
2018-07-07T11:32:21.425Z,2.43
2018-07-07T11:34:48.352Z,1.97
2018-07-07T11:37:15.256Z,2.20
2018-07-07T11:39:42.193Z,2.57
2018-07-07T11:42:09.097Z,2.13
2018-07-07T11:44:36.004Z,2.33
2018-07-07T11:47:02.950Z,2.50
2018-07-07T11:49:29.867Z,2.23
2018-07-07T11:51:56.776Z,2.40
2018-07-07T11:54:23.691Z,2.43
2018-07-07T11:56:50.688Z,2.20
2018-07-07T11:59:17.630Z,2.43
2018-07-07T12:01:44.584Z,2.27
2018-07-07T12:04:11.482Z,2.17
2018-07-07T12:06:38.458Z,2.60
2018-07-07T12:09:05.400Z,2.30
2018-07-07T12:11:32.426Z,2.33
2018-07-07T12:13:59.296Z,2.63
2018-07-07T12:16:26.192Z,2.17
2018-07-07T12:18:53.093Z,2.90
2018-07-07T12:21:20.022Z,2.60
2018-07-07T12:23:46.937Z,2.27
2018-07-07T12:26:13.843Z,2.60
2018-07-07T12:28:40.757Z,2.60
2018-07-07T12:31:07.700Z,2.50
2018-07-07T12:33:34.628Z,2.23
2018-07-07T12:36:01.610Z,2.50
2018-07-07T12:38:28.554Z,2.20
2018-07-07T12:40:55.471Z,2.20
2018-07-07T12:43:22.383Z,2.13
2018-07-07T12:45:49.323Z,2.00
2018-07-07T12:48:16.305Z,2.40
2018-07-07T12:50:43.214Z,2.43
2018-07-07T12:53:10.118Z,2.33
2018-07-07T12:55:37.092Z,2.33
2018-07-07T12:58:04.280Z,2.33
2018-07-07T13:00:31.214Z,2.20
2018-07-07T13:02:58.130Z,2.30
2018-07-07T13:05:25.081Z,2.10
2018-07-07T13:07:51.986Z,2.27
2018-07-07T13:10:18.883Z,1.90
2018-07-07T13:12:45.812Z,2.70
2018-07-07T13:15:12.838Z,2.53
2018-07-07T13:17:39.645Z,2.13
2018-07-07T13:20:06.601Z,2.67
2018-07-07T13:22:33.490Z,2.30
2018-07-07T13:25:00.404Z,2.67
2018-07-07T13:27:27.352Z,2.00
2018-07-07T13:29:54.269Z,2.50
2018-07-07T13:32:21.200Z,2.20
2018-07-07T13:34:48.129Z,2.10
2018-07-07T13:37:15.044Z,2.20
2018-07-07T13:39:42.697Z,2.37
2018-07-07T13:42:10.720Z,2.20
2018-07-07T13:44:37.632Z,2.00
2018-07-07T13:47:05.235Z,2.00
2018-07-07T13:49:32.139Z,2.23
2018-07-07T13:51:59.071Z,2.50
2018-07-07T13:54:26.034Z,2.40
2018-07-07T13:56:52.968Z,2.30
2018-07-07T13:59:19.869Z,2.33
2018-07-07T14:01:46.767Z,2.23
2018-07-07T14:04:13.749Z,2.33
2018-07-07T14:06:40.681Z,2.00
2018-07-07T14:09:08.056Z,2.27
2018-07-07T14:11:34.948Z,2.30
2018-07-07T14:14:01.854Z,2.27
2018-07-07T14:16:28.744Z,1.90
2018-07-07T14:18:55.648Z,2.07
2018-07-07T14:21:22.572Z,2.33
2018-07-07T14:23:49.482Z,2.20
2018-07-07T14:26:16.410Z,2.50
2018-07-07T14:28:43.341Z,2.23
2018-07-07T14:31:10.264Z,2.10
2018-07-07T14:33:37.172Z,2.23
2018-07-07T14:36:04.155Z,2.03
2018-07-07T14:38:37.476Z,2.20
2018-07-07T14:41:12.897Z,2.30
2018-07-07T14:43:47.747Z,2.10
2018-07-07T14:46:14.643Z,1.90
2018-07-07T14:48:41.548Z,2.20
2018-07-07T14:51:08.526Z,2.20
2018-07-07T14:53:35.409Z,2.20
2018-07-07T14:56:02.325Z,2.10
2018-07-07T14:58:29.245Z,2.07
2018-07-07T15:00:56.157Z,2.53
2018-07-07T15:03:23.787Z,2.63
2018-07-07T15:05:50.701Z,2.37
2018-07-07T15:08:17.596Z,1.93
2018-07-07T15:10:44.538Z,2.37
2018-07-07T15:13:11.443Z,2.20
2018-07-07T15:15:38.463Z,2.00
2018-07-07T15:18:05.367Z,2.17
2018-07-07T15:20:32.269Z,2.53
2018-07-07T15:22:59.210Z,2.17
2018-07-07T15:25:26.136Z,2.47
2018-07-07T15:27:53.044Z,2.33
2018-07-07T15:30:19.932Z,2.13
2018-07-07T15:32:46.869Z,2.47
2018-07-07T15:35:13.765Z,2.43
2018-07-07T15:37:40.688Z,2.50
2018-07-07T15:40:07.684Z,2.47
2018-07-07T15:42:34.578Z,2.93
2018-07-07T15:45:01.503Z,2.30
2018-07-07T15:47:28.416Z,2.47
2018-07-07T15:49:55.403Z,2.47
2018-07-07T15:52:22.309Z,2.33
2018-07-07T15:54:49.236Z,2.23
2018-07-07T15:57:16.159Z,2.53
2018-07-07T15:59:43.063Z,2.90
2018-07-07T16:02:09.997Z,2.87
2018-07-07T16:04:36.945Z,2.63
2018-07-07T16:07:04.033Z,3.20
2018-07-07T16:09:30.944Z,2.13
2018-07-07T16:11:57.840Z,2.57
2018-07-07T16:14:24.748Z,2.57
2018-07-07T16:16:51.676Z,2.40
2018-07-07T16:19:18.572Z,2.20
2018-07-07T16:21:45.564Z,2.40
2018-07-07T16:24:12.443Z,2.60
2018-07-07T16:26:39.353Z,2.60
2018-07-07T16:29:06.268Z,2.43
2018-07-07T16:31:33.221Z,2.70
2018-07-07T16:34:00.453Z,2.83
2018-07-07T16:36:27.387Z,2.70
2018-07-07T16:38:54.321Z,2.40
2018-07-07T16:41:21.267Z,2.93
2018-07-07T16:43:48.208Z,2.63
2018-07-07T16:46:15.191Z,3.17
2018-07-07T16:48:42.146Z,2.70
2018-07-07T16:51:09.311Z,2.50
2018-07-07T16:53:36.232Z,2.73
2018-07-07T16:56:03.188Z,2.80
2018-07-07T16:58:30.406Z,2.77
2018-07-07T17:00:57.743Z,3.20
2018-07-07T17:03:24.692Z,3.10
2018-07-07T17:05:51.598Z,3.37
2018-07-07T17:08:18.557Z,2.40
2018-07-07T17:10:46.271Z,2.87
2018-07-07T17:13:13.538Z,2.83
2018-07-07T17:15:40.629Z,2.90
2018-07-07T17:18:07.567Z,2.60
2018-07-07T17:20:34.527Z,2.77
2018-07-07T17:23:01.465Z,2.73
2018-07-07T17:25:28.387Z,2.80
2018-07-07T17:27:55.372Z,2.63
2018-07-07T17:30:22.399Z,2.63
2018-07-07T17:32:49.389Z,2.60
2018-07-07T17:35:16.336Z,2.57
2018-07-07T17:37:43.284Z,3.07
2018-07-07T17:40:10.425Z,3.10
2018-07-07T17:42:37.340Z,2.80
2018-07-07T17:45:04.565Z,2.93
2018-07-07T17:47:31.577Z,3.03
2018-07-07T17:50:00.614Z,2.93
2018-07-07T17:52:27.943Z,2.93
2018-07-07T17:54:54.864Z,3.00
2018-07-07T17:57:21.796Z,3.10
2018-07-07T17:59:48.728Z,3.03
2018-07-07T18:02:15.688Z,3.03
2018-07-07T18:04:43.489Z,3.00
2018-07-07T18:07:10.412Z,2.93
2018-07-07T18:09:37.341Z,3.27
2018-07-07T18:12:04.684Z,2.77
2018-07-07T18:14:31.610Z,3.23
2018-07-07T18:16:58.521Z,2.40
2018-07-07T18:19:25.455Z,3.40
2018-07-07T18:21:52.556Z,2.60
2018-07-07T18:24:19.494Z,2.53
2018-07-07T18:26:46.403Z,2.93
2018-07-07T18:29:13.316Z,3.30
2018-07-07T18:31:40.243Z,2.83
2018-07-07T18:34:07.160Z,2.90
2018-07-07T18:36:34.066Z,2.87
2018-07-07T18:39:00.978Z,3.30
2018-07-07T18:41:27.884Z,2.90
2018-07-07T18:43:54.814Z,3.33
2018-07-07T18:46:21.728Z,2.60
2018-07-07T18:48:53.828Z,3.70
2018-07-07T18:51:21.115Z,3.00
2018-07-07T18:53:48.140Z,2.70
2018-07-07T18:56:15.395Z,3.03
2018-07-07T18:58:42.354Z,3.20
2018-07-07T19:01:09.346Z,2.57
2018-07-07T19:03:36.316Z,3.30
2018-07-07T19:06:03.357Z,2.83
2018-07-07T19:08:30.303Z,3.37
2018-07-07T19:10:57.961Z,2.77
2018-07-07T19:13:24.988Z,2.73
2018-07-07T19:15:52.599Z,3.10
2018-07-07T19:18:19.673Z,3.10
2018-07-07T19:20:52.473Z,2.77
2018-07-07T19:23:25.234Z,3.60
2018-07-07T19:25:58.270Z,3.37
2018-07-07T19:28:25.271Z,2.80
2018-07-07T19:30:52.463Z,2.80
2018-07-07T19:33:25.201Z,2.80
2018-07-07T19:35:57.859Z,3.07
2018-07-07T19:38:25.105Z,3.10
2018-07-07T19:40:52.142Z,3.07
2018-07-07T19:43:19.324Z,3.07
2018-07-07T19:45:46.295Z,2.70
2018-07-07T19:48:13.599Z,3.40
2018-07-07T19:50:40.545Z,3.63
2018-07-07T19:53:07.485Z,3.13
2018-07-07T19:55:34.424Z,2.93
2018-07-07T19:58:01.345Z,3.10
2018-07-07T20:00:28.243Z,2.83
2018-07-07T20:02:55.136Z,2.87
2018-07-07T20:05:22.065Z,3.53
2018-07-07T20:07:49.657Z,2.60
2018-07-07T20:10:16.720Z,3.43
2018-07-07T20:12:43.892Z,2.93
2018-07-07T20:15:10.971Z,3.10
2018-07-07T20:17:49.585Z,3.57
2018-07-07T20:20:37.787Z,3.60
2018-07-07T20:23:06.476Z,3.17
2018-07-07T20:25:33.435Z,3.70
2018-07-07T20:28:06.305Z,3.23
2018-07-07T20:30:34.084Z,4.00
2018-07-07T20:33:01.238Z,3.80
2018-07-07T20:35:28.415Z,3.30
2018-07-07T20:37:55.620Z,3.47
2018-07-07T20:40:22.736Z,3.47
2018-07-07T20:42:49.710Z,3.53
2018-07-07T20:45:16.892Z,3.20
2018-07-07T20:47:43.856Z,3.60
2018-07-07T20:50:10.807Z,3.37
2018-07-07T20:52:37.720Z,3.27
2018-07-07T20:55:06.236Z,3.70
2018-07-07T20:57:33.159Z,3.73
2018-07-07T21:00:00.304Z,3.10
2018-07-07T21:02:27.196Z,3.33
2018-07-07T21:04:54.127Z,3.13
2018-07-07T21:07:21.376Z,3.23
2018-07-07T21:09:48.310Z,3.17
2018-07-07T21:12:15.240Z,3.50
2018-07-07T21:14:42.323Z,3.07
2018-07-07T21:17:09.529Z,3.60
2018-07-07T21:19:36.457Z,4.20
2018-07-07T21:22:03.460Z,3.20
2018-07-07T21:24:30.473Z,3.57
2018-07-07T21:26:57.472Z,3.07
2018-07-07T21:29:24.461Z,3.47
2018-07-07T21:31:51.389Z,3.10
2018-07-07T21:34:18.307Z,3.57
2018-07-07T21:36:45.816Z,3.37
2018-07-07T21:39:12.963Z,3.00
2018-07-07T21:41:40.204Z,3.60
2018-07-07T21:44:07.312Z,3.73
2018-07-07T21:46:34.309Z,3.10
2018-07-07T21:49:01.226Z,2.90
2018-07-07T21:51:28.695Z,3.20
2018-07-07T21:53:55.810Z,3.33
2018-07-07T21:56:22.959Z,3.50
2018-07-07T21:58:54.612Z,4.03
2018-07-07T22:01:39.021Z,3.17
2018-07-07T22:04:11.750Z,3.50
2018-07-07T22:06:44.521Z,3.10
2018-07-07T22:09:11.765Z,3.17
2018-07-07T22:11:38.848Z,3.67
2018-07-07T22:14:05.786Z,3.83
2018-07-07T22:16:32.714Z,3.03
2018-07-07T22:18:59.613Z,3.33
2018-07-07T22:21:38.276Z,3.47
2018-07-07T22:24:05.203Z,3.67
2018-07-07T22:26:32.121Z,3.07
2018-07-07T22:28:59.045Z,3.60
2018-07-07T22:31:25.987Z,3.63
2018-07-07T22:33:52.897Z,3.60
2018-07-07T22:36:25.800Z,3.07
2018-07-07T22:38:54.831Z,4.00
2018-07-07T22:41:32.071Z,3.50
2018-07-07T22:43:59.380Z,4.23
2018-07-07T22:46:27.118Z,3.70
2018-07-07T22:48:54.482Z,3.63
2018-07-07T22:51:21.446Z,4.13
2018-07-07T22:53:48.524Z,3.70
2018-07-07T22:56:15.436Z,4.07
2018-07-07T22:58:42.728Z,4.00
2018-07-07T23:01:09.822Z,3.73
2018-07-07T23:03:36.746Z,3.40
2018-07-07T23:06:03.692Z,3.73
2018-07-07T23:08:31.236Z,4.40
2018-07-07T23:10:58.160Z,3.50
2018-07-07T23:13:25.252Z,4.40
2018-07-07T23:15:52.241Z,3.73
2018-07-07T23:18:19.671Z,4.13
2018-07-07T23:20:46.777Z,3.70
2018-07-07T23:23:13.777Z,3.07
2018-07-07T23:25:40.723Z,4.53
2018-07-07T23:28:07.651Z,3.73
2018-07-07T23:30:34.567Z,3.80
2018-07-07T23:33:01.514Z,3.80
2018-07-07T23:35:28.420Z,3.70
2018-07-07T23:37:55.336Z,4.03
2018-07-07T23:40:22.249Z,3.70
2018-07-07T23:42:49.166Z,4.63
2018-07-07T23:45:16.409Z,4.27
2018-07-07T23:47:43.938Z,4.20
2018-07-07T23:50:11.184Z,3.40
2018-07-07T23:52:38.098Z,4.10
2018-07-07T23:55:11.469Z,4.03
2018-07-07T23:57:49.152Z,4.03
